SBCTSBNF [BGM087]

Details From SBCT - Afonso Pena
To SBNF - Ministro Victor Konder
Flight Number BGM087
Tags None
Created
Modified
Stats Distance 98 nm / 182 km
Max Altitude 10,000 ft / 3,048 m
Waypoints 7
Social Downloads 12
Likes 1
Share VATSIM

Download

Looking for another format? Having issues loading an existing format? Contact us
Advertisement - Login to hide

Notes

Dep RW 15 Arr RW 25 Navigantes NDB (NVG) 235 kHz

Route

SBCT CT011 ALVOX GAB NAZA TARX SBNF

ID Type Via Altitude Latitude Longitude Leg Dist Tot Dist Heading (true) Name
O SBCT APT - 2,988 ft / 911 m -25.52889˚ -49.17306˚ - 0 nm - Afonso Pena
CT011 FIX - 5,000 ft / 1,524 m -25.65333˚ -49.03800˚ 10 nm 10 nm 136° / 136° -
ALVOX FIX - 10,000 ft / 3,048 m -26.17550˚ -48.97667˚ 31 nm 41 nm 174° / 174° -
GAB NDB - 6,000 ft / 1,829 m -26.37333˚ -48.72317˚ 18 nm 60 nm 131° / 131° GABI NDB
NAZA FIX - 3,000 ft / 914 m -26.78183˚ -48.49050˚ 27 nm 87 nm 153° / 153° -
TARX FIX - 1,000 ft / 305 m -26.81783˚ -48.55183˚ 3 nm 91 nm 237° / 237° -
O SBNF APT - 18 ft / 5 m -26.88000˚ -48.65139˚ 6 nm 98 nm 235° / 235° Ministro Victor Konder

Altitude Profile

Advertisement - Login to hide

SBCT

Details ICAO SBCT (CWB)
Name Afonso Pena
Region Brazil
Timezone America/Sao_Paulo (UTC-3.0)
Stats Elevation 2,988 ft / 911 m (AMSL)
Location -25.528885° -49.173062°
Runways 2
Magnetic Variation 19.675° W

METAR

SBCT 242300Z 05006KT 9999 BKN005 14/12 Q1026

Decode

TAF

TAF SBCT 241615Z 2418/2518 35006KT 9999 FEW025 TX18/2418Z TN12/2509Z BECMG 2420/2422 BKN012 BECMG 2422/2424 08005KT BKN007 BECMG 2505/2507 0500 FG OVC002 BECMG 2512/2514 BKN020 RMK PCX

Decode

Departure Runways

ID Width Length Bearing (true) Bearing (mag) Surface Threshold Offset Overrun Length
11 148 ft / 45 m 5,909 ft / 1,801 m 91.79° 111.46° Asphalt 0 ft / 0 m 0 ft / 0 m
15 148 ft / 45 m 7,290 ft / 2,222 m 134.76° 154.43° Asphalt 0 ft / 0 m 190 ft / 58 m
29 148 ft / 45 m 5,909 ft / 1,801 m 271.78° 291.45° Asphalt 0 ft / 0 m 0 ft / 0 m
33 148 ft / 45 m 7,290 ft / 2,222 m 314.75° 334.42° Asphalt 0 ft / 0 m 185 ft / 56 m

SBNF

Details ICAO SBNF (NVT)
Name Ministro Victor Konder
Region Brazil
Timezone America/Sao_Paulo (UTC-3.0)
Stats Elevation 18 ft / 5 m (AMSL)
Location -26.879998° -48.651387°
Runways 1
Magnetic Variation 19.574° W

METAR

SBNF 242300Z 00000KT 9999 FEW030 14/12 Q1025

Decode

TAF

TAF SBNF 241615Z 2418/2518 23008KT 9999 FEW020 BKN040 TX20/2418Z TN17/2506Z BECMG 2421/2423 18007KT BKN030 PROB40 2507/2511 4000 BR BKN015 RMK PCX

Decode

Destination Runways

ID Width Length Bearing (true) Bearing (mag) Surface Threshold Offset Overrun Length
07 148 ft / 45 m 5,580 ft / 1,701 m 54.86° 74.43° Asphalt 0 ft / 0 m 190 ft / 58 m
25 148 ft / 45 m 5,580 ft / 1,701 m 234.85° 254.42° Asphalt 0 ft / 0 m 195 ft / 59 m

Popular Alternatives